createdAt,value
2022-08-26T00:01:29.160Z,15.70
2022-08-26T00:03:57.021Z,15.70
2022-08-26T00:06:28.018Z,15.70
2022-08-26T00:08:56.758Z,15.60
2022-08-26T00:11:26.739Z,15.60
2022-08-26T00:13:55.115Z,15.60
2022-08-26T00:16:23.729Z,15.60
2022-08-26T00:18:51.039Z,15.60
2022-08-26T00:21:17.930Z,15.60
2022-08-26T00:23:45.220Z,15.50
2022-08-26T00:26:12.407Z,15.50
2022-08-26T00:28:39.451Z,15.50
2022-08-26T00:31:07.318Z,15.40
2022-08-26T00:33:38.304Z,15.40
2022-08-26T00:36:05.980Z,15.40
2022-08-26T00:38:33.126Z,15.30
2022-08-26T00:41:00.511Z,15.30
2022-08-26T00:43:27.466Z,15.30
2022-08-26T00:46:28.895Z,15.30
2022-08-26T00:49:12.213Z,15.30
2022-08-26T00:51:44.562Z,15.30
2022-08-26T00:54:12.245Z,15.20
2022-08-26T00:56:43.984Z,15.30
2022-08-26T00:59:14.507Z,15.30
2022-08-26T01:01:44.381Z,15.40
2022-08-26T01:04:13.744Z,15.40
2022-08-26T01:06:41.030Z,15.50
2022-08-26T01:09:11.265Z,15.50
2022-08-26T01:11:38.237Z,15.50
2022-08-26T01:14:05.214Z,15.50
2022-08-26T01:16:33.460Z,15.50
2022-08-26T01:19:03.878Z,15.50
2022-08-26T01:21:44.465Z,15.50
2022-08-26T01:24:11.436Z,15.40
2022-08-26T01:26:41.458Z,15.50
2022-08-26T01:29:18.767Z,15.40
2022-08-26T01:31:50.063Z,15.40
2022-08-26T01:34:21.546Z,15.30
2022-08-26T01:36:51.542Z,15.30
2022-08-26T01:39:19.361Z,15.20
2022-08-26T01:41:46.453Z,15.10
2022-08-26T01:44:19.933Z,15.00
2022-08-26T01:46:46.945Z,15.00
2022-08-26T01:49:14.477Z,15.00
2022-08-26T01:51:44.477Z,14.90
2022-08-26T01:54:11.910Z,14.90
2022-08-26T01:56:40.704Z,14.90
2022-08-26T01:59:09.446Z,14.80
2022-08-26T02:01:37.778Z,14.80
2022-08-26T02:04:15.499Z,14.70
2022-08-26T02:06:42.609Z,14.70
2022-08-26T02:09:09.828Z,14.70
2022-08-26T02:11:36.820Z,14.60
2022-08-26T02:14:37.232Z,14.60
2022-08-26T02:17:10.967Z,14.60
2022-08-26T02:19:39.965Z,14.50
2022-08-26T02:22:11.566Z,14.40
2022-08-26T02:24:49.576Z,14.40
2022-08-26T02:27:32.225Z,14.40
2022-08-26T02:30:09.144Z,14.40
2022-08-26T02:32:37.247Z,14.30
2022-08-26T02:35:08.444Z,14.30
2022-08-26T02:37:36.228Z,14.30
2022-08-26T02:40:04.208Z,14.20
2022-08-26T02:42:31.171Z,14.20
2022-08-26T02:44:58.099Z,14.10
2022-08-26T02:47:25.606Z,14.10
2022-08-26T02:49:55.985Z,14.10
2022-08-26T02:52:22.961Z,14.00
2022-08-26T02:54:49.865Z,14.00
2022-08-26T02:57:17.196Z,14.00
2022-08-26T02:59:44.204Z,14.00
2022-08-26T03:02:11.406Z,13.90
2022-08-26T03:04:39.479Z,13.90
2022-08-26T03:07:06.557Z,13.90
2022-08-26T03:09:33.636Z,13.80
2022-08-26T03:12:00.575Z,13.80
2022-08-26T03:14:27.451Z,13.80
2022-08-26T03:16:54.488Z,13.80
2022-08-26T03:19:24.922Z,13.80
2022-08-26T03:21:53.107Z,13.80
2022-08-26T03:24:25.567Z,13.70
2022-08-26T03:26:53.069Z,13.60
2022-08-26T03:29:39.332Z,13.60
2022-08-26T03:32:06.429Z,13.60
2022-08-26T03:34:33.473Z,13.60
2022-08-26T03:37:00.378Z,13.50
2022-08-26T03:39:27.455Z,13.50
2022-08-26T03:41:58.976Z,13.50
2022-08-26T03:44:27.268Z,13.50
2022-08-26T03:46:54.682Z,13.50
2022-08-26T03:49:21.967Z,13.50
2022-08-26T03:51:48.889Z,13.50
2022-08-26T03:54:17.099Z,13.40
2022-08-26T03:56:43.951Z,13.40
2022-08-26T03:59:13.514Z,13.40
2022-08-26T04:01:40.530Z,13.30
2022-08-26T04:04:07.632Z,13.30
2022-08-26T04:06:39.074Z,13.20
2022-08-26T04:09:08.426Z,13.30
2022-08-26T04:11:38.782Z,13.30
2022-08-26T04:14:08.737Z,13.20
2022-08-26T04:16:35.808Z,13.20
2022-08-26T04:19:03.357Z,13.20
2022-08-26T04:21:30.275Z,13.20
2022-08-26T04:23:58.242Z,13.20
2022-08-26T04:26:25.473Z,13.20
2022-08-26T04:28:53.889Z,13.10
2022-08-26T04:31:21.000Z,13.10
2022-08-26T04:33:49.696Z,13.10
2022-08-26T04:36:16.865Z,13.10
2022-08-26T04:38:44.653Z,13.10
2022-08-26T04:41:15.531Z,13.10
2022-08-26T04:43:44.672Z,13.00
2022-08-26T04:46:13.064Z,13.00
2022-08-26T04:48:41.199Z,13.00
2022-08-26T04:51:09.680Z,13.00
2022-08-26T04:53:37.438Z,13.00
2022-08-26T04:56:04.731Z,12.90
2022-08-26T04:58:31.979Z,12.90
2022-08-26T05:00:58.888Z,12.90
2022-08-26T05:03:30.451Z,12.90
2022-08-26T05:05:58.193Z,12.80
2022-08-26T05:08:25.263Z,12.90
2022-08-26T05:10:56.017Z,12.80
2022-08-26T05:13:25.009Z,12.90
2022-08-26T05:15:52.081Z,12.90
2022-08-26T05:18:21.371Z,12.80
2022-08-26T05:20:51.519Z,12.90
2022-08-26T05:23:22.984Z,12.90
2022-08-26T05:25:53.597Z,12.90
2022-08-26T05:28:22.758Z,13.00
2022-08-26T05:30:49.758Z,13.00
2022-08-26T05:33:16.965Z,13.10
2022-08-26T05:35:44.221Z,13.10
2022-08-26T05:38:14.496Z,13.20
2022-08-26T05:40:44.523Z,13.30
2022-08-26T05:43:11.824Z,13.30
2022-08-26T05:45:48.173Z,13.40
2022-08-26T05:48:22.877Z,13.50
2022-08-26T05:50:52.472Z,13.50
2022-08-26T05:53:20.731Z,13.60
2022-08-26T05:55:50.308Z,13.60
2022-08-26T05:58:17.618Z,13.70
2022-08-26T06:00:48.981Z,13.70
2022-08-26T06:03:16.786Z,13.70
2022-08-26T06:05:43.599Z,13.80
2022-08-26T06:08:11.682Z,13.80
2022-08-26T06:10:52.596Z,13.90
2022-08-26T06:13:21.528Z,13.90
2022-08-26T06:15:49.250Z,14.00
2022-08-26T06:18:21.100Z,14.00
2022-08-26T06:20:57.329Z,14.10
2022-08-26T06:23:43.925Z,14.10
2022-08-26T06:26:12.277Z,14.20
2022-08-26T06:28:39.460Z,14.20
2022-08-26T06:31:06.433Z,14.30
2022-08-26T06:33:33.341Z,14.30
2022-08-26T06:36:01.247Z,14.30
2022-08-26T06:38:28.606Z,14.40
2022-08-26T06:40:55.479Z,14.40
2022-08-26T06:43:23.908Z,14.40
2022-08-26T06:45:51.144Z,14.50
2022-08-26T06:48:19.948Z,14.60
2022-08-26T06:50:46.905Z,14.70
2022-08-26T06:53:17.289Z,14.70
2022-08-26T06:55:46.164Z,14.80
2022-08-26T06:58:14.196Z,14.80
2022-08-26T07:00:41.674Z,14.90
2022-08-26T07:03:14.555Z,14.90
2022-08-26T07:05:41.491Z,15.00
2022-08-26T07:08:08.375Z,15.00
2022-08-26T07:10:36.365Z,15.10
2022-08-26T07:13:03.246Z,15.10
2022-08-26T07:15:35.835Z,15.20
2022-08-26T07:18:03.141Z,15.30
2022-08-26T07:20:30.041Z,15.40
2022-08-26T07:22:58.977Z,15.40
2022-08-26T07:25:26.016Z,15.40
2022-08-26T07:27:54.307Z,15.50
2022-08-26T07:30:21.686Z,15.50
2022-08-26T07:32:48.689Z,15.50
2022-08-26T07:35:15.842Z,15.60
2022-08-26T07:37:43.054Z,15.60
2022-08-26T07:40:10.258Z,15.70
2022-08-26T07:42:37.092Z,15.70
2022-08-26T07:45:04.867Z,15.80
2022-08-26T07:47:31.757Z,15.90
2022-08-26T07:49:58.755Z,16.00
2022-08-26T07:52:27.676Z,16.10
2022-08-26T07:54:56.043Z,16.10
2022-08-26T07:57:26.313Z,16.30
2022-08-26T07:59:54.972Z,16.30
2022-08-26T08:02:22.141Z,16.50
2022-08-26T08:04:49.170Z,16.50
2022-08-26T08:07:16.387Z,16.60
2022-08-26T08:09:43.240Z,16.60
2022-08-26T08:12:14.173Z,16.70
2022-08-26T08:14:42.278Z,16.80
2022-08-26T08:19:42.252Z,16.70
2022-08-26T08:22:17.501Z,16.70
2022-08-26T08:24:49.674Z,16.80
2022-08-26T08:27:18.121Z,16.70
2022-08-26T08:29:48.270Z,16.80
2022-08-26T08:32:15.899Z,16.90
2022-08-26T08:37:10.900Z,17.10
2022-08-26T08:39:37.777Z,17.20
2022-08-26T08:42:27.315Z,17.20
2022-08-26T08:44:55.746Z,17.30
2022-08-26T08:47:35.147Z,17.40
2022-08-26T08:50:20.581Z,17.50
2022-08-26T08:52:49.621Z,17.70
2022-08-26T08:55:18.178Z,17.80
2022-08-26T08:58:02.214Z,17.90
2022-08-26T09:00:36.633Z,18.00
2022-08-26T09:03:32.412Z,18.00
2022-08-26T09:06:01.605Z,18.10
2022-08-26T09:08:30.580Z,18.10
2022-08-26T09:10:59.223Z,18.10
2022-08-26T09:13:27.465Z,18.10
2022-08-26T09:15:54.408Z,18.30
2022-08-26T09:18:33.301Z,18.30
2022-08-26T09:21:04.002Z,18.30
2022-08-26T09:23:33.410Z,18.30
2022-08-26T09:26:04.055Z,18.30
2022-08-26T09:28:31.550Z,18.40
2022-08-26T09:31:17.465Z,18.40
2022-08-26T09:33:44.797Z,18.50
2022-08-26T09:36:24.846Z,18.50
2022-08-26T09:38:52.288Z,18.50
2022-08-26T09:41:31.835Z,18.50
2022-08-26T09:44:08.795Z,18.50
2022-08-26T09:47:01.805Z,18.50
2022-08-26T09:49:35.557Z,18.60
2022-08-26T09:52:21.907Z,18.60
2022-08-26T09:55:12.489Z,18.70
2022-08-26T09:57:52.110Z,18.70
2022-08-26T10:00:25.712Z,18.70
2022-08-26T10:02:54.785Z,18.80
2022-08-26T10:05:43.872Z,18.90
2022-08-26T10:08:16.820Z,19.00
2022-08-26T10:10:45.082Z,19.00
2022-08-26T10:13:25.947Z,19.10
2022-08-26T10:16:13.634Z,19.10
2022-08-26T10:18:41.924Z,19.30
2022-08-26T10:21:23.837Z,19.40
2022-08-26T10:23:51.367Z,19.50
2022-08-26T10:26:26.924Z,19.50
2022-08-26T10:28:53.798Z,19.60
2022-08-26T10:31:20.761Z,19.60
2022-08-26T10:33:58.673Z,19.60
2022-08-26T10:37:10.765Z,19.70
2022-08-26T10:39:49.062Z,19.70
2022-08-26T10:42:23.244Z,19.70
2022-08-26T10:44:50.494Z,19.70
2022-08-26T10:47:40.675Z,19.80
2022-08-26T10:50:07.625Z,19.80
2022-08-26T10:52:41.669Z,19.90
2022-08-26T10:55:12.515Z,19.80
2022-08-26T10:57:39.288Z,19.90
2022-08-26T11:00:44.006Z,19.90
2022-08-26T11:03:21.722Z,19.90
2022-08-26T11:06:08.887Z,20.10
2022-08-26T11:08:35.699Z,20.30
2022-08-26T11:11:03.193Z,20.40
2022-08-26T11:13:49.069Z,20.50
2022-08-26T11:16:31.630Z,20.60
2022-08-26T11:18:58.953Z,20.70
2022-08-26T11:21:47.632Z,20.70
2022-08-26T11:24:34.271Z,20.70
2022-08-26T11:27:02.632Z,20.80
2022-08-26T11:29:49.113Z,20.70
2022-08-26T11:32:36.825Z,20.70
2022-08-26T11:35:06.515Z,20.70
2022-08-26T11:37:41.174Z,20.70
2022-08-26T11:40:12.232Z,20.70
2022-08-26T11:42:55.656Z,20.80
2022-08-26T11:45:23.586Z,20.70
2022-08-26T11:47:50.532Z,20.70
2022-08-26T11:50:18.775Z,20.80
2022-08-26T11:53:01.952Z,20.80
2022-08-26T11:55:29.631Z,20.80
2022-08-26T11:57:58.156Z,21.00
2022-08-26T12:00:33.364Z,21.10
2022-08-26T12:03:02.516Z,21.20
2022-08-26T12:05:31.087Z,21.30
2022-08-26T12:07:59.744Z,21.30
2022-08-26T12:10:29.953Z,21.20
2022-08-26T12:12:58.717Z,21.20
2022-08-26T12:15:25.824Z,21.20
2022-08-26T12:17:54.426Z,21.30
2022-08-26T12:20:46.672Z,21.20
2022-08-26T12:23:25.800Z,21.30
2022-08-26T12:25:54.148Z,21.50
2022-08-26T12:28:21.619Z,21.50
2022-08-26T12:31:19.489Z,21.70
2022-08-26T12:33:46.442Z,21.90
2022-08-26T12:36:13.490Z,22.10
2022-08-26T12:38:40.568Z,22.30
2022-08-26T12:41:07.597Z,22.40
2022-08-26T12:43:44.251Z,22.60
2022-08-26T12:46:12.075Z,22.70
2022-08-26T12:48:39.164Z,22.90
2022-08-26T12:51:06.954Z,23.00
2022-08-26T12:53:34.404Z,23.10
2022-08-26T12:56:03.736Z,23.30
2022-08-26T12:58:34.532Z,23.50
2022-08-26T13:01:04.462Z,23.60
2022-08-26T13:03:31.481Z,23.80
2022-08-26T13:06:15.634Z,23.90
2022-08-26T13:08:51.784Z,24.10
2022-08-26T13:11:20.579Z,24.20
2022-08-26T13:13:58.186Z,24.20
2022-08-26T13:16:25.902Z,24.30
2022-08-26T13:18:53.817Z,24.40
2022-08-26T13:21:24.961Z,24.50
2022-08-26T13:23:53.212Z,24.50
2022-08-26T13:26:20.106Z,24.50
2022-08-26T13:28:59.155Z,24.40
2022-08-26T13:31:29.568Z,24.30
2022-08-26T13:33:56.863Z,24.10
2022-08-26T13:36:23.737Z,24.10
2022-08-26T13:38:51.975Z,24.00
2022-08-26T13:41:19.368Z,23.90
2022-08-26T13:43:56.811Z,23.80
2022-08-26T13:46:29.018Z,23.70
2022-08-26T13:48:56.490Z,23.70
2022-08-26T13:51:23.665Z,23.80
2022-08-26T13:53:50.611Z,23.70
2022-08-26T13:56:18.924Z,23.60
2022-08-26T13:58:46.209Z,23.40
2022-08-26T14:01:13.061Z,23.20
2022-08-26T14:03:39.977Z,23.00
2022-08-26T14:06:06.848Z,22.90
2022-08-26T14:08:33.733Z,22.80
2022-08-26T14:11:00.589Z,22.70
2022-08-26T14:13:27.476Z,22.70
2022-08-26T14:15:54.470Z,22.60
2022-08-26T14:18:22.970Z,22.60
2022-08-26T14:20:53.104Z,22.60
2022-08-26T14:23:19.939Z,22.50
2022-08-26T14:25:46.786Z,22.50
2022-08-26T14:28:13.659Z,22.50
2022-08-26T14:30:40.756Z,22.60
2022-08-26T14:33:07.779Z,22.60
2022-08-26T14:35:34.676Z,22.70
2022-08-26T14:38:01.518Z,22.80
2022-08-26T14:40:29.045Z,22.90
2022-08-26T14:42:55.913Z,23.10
2022-08-26T14:45:26.248Z,23.20
2022-08-26T14:47:53.722Z,23.30
2022-08-26T14:50:21.570Z,23.40
2022-08-26T14:53:07.290Z,23.50
2022-08-26T14:55:34.449Z,23.60
2022-08-26T14:58:01.861Z,23.70
2022-08-26T15:00:29.048Z,23.80
2022-08-26T15:02:56.109Z,23.80
2022-08-26T15:05:23.015Z,24.00
2022-08-26T15:07:49.848Z,24.10
2022-08-26T15:10:16.948Z,24.10
2022-08-26T15:12:44.020Z,24.20
2022-08-26T15:15:11.381Z,24.20
2022-08-26T15:17:38.584Z,24.20
2022-08-26T15:20:07.579Z,24.20
2022-08-26T15:22:34.390Z,24.40
2022-08-26T15:25:01.291Z,24.40
2022-08-26T15:27:28.134Z,24.20
2022-08-26T15:29:54.976Z,24.20
2022-08-26T15:32:21.865Z,24.10
2022-08-26T15:34:50.080Z,24.10
2022-08-26T15:37:17.023Z,24.00
2022-08-26T15:39:44.262Z,23.90
2022-08-26T15:42:11.680Z,23.80
2022-08-26T15:44:42.434Z,23.70
2022-08-26T15:47:09.249Z,23.60
2022-08-26T15:49:36.073Z,23.60
2022-08-26T15:52:05.317Z,23.60
2022-08-26T15:54:35.716Z,23.70
2022-08-26T15:57:02.764Z,23.70
2022-08-26T15:59:32.543Z,23.70
2022-08-26T16:02:00.192Z,23.70
2022-08-26T16:04:27.152Z,23.70
2022-08-26T16:06:54.008Z,23.70
2022-08-26T16:09:23.535Z,23.80
2022-08-26T16:11:50.993Z,23.70
2022-08-26T16:14:17.788Z,23.70
2022-08-26T16:16:44.679Z,23.70
2022-08-26T16:19:11.735Z,23.70
2022-08-26T16:21:38.793Z,23.70
2022-08-26T16:24:05.808Z,23.80
2022-08-26T16:26:34.155Z,23.70
2022-08-26T16:29:01.105Z,23.80
2022-08-26T16:31:27.995Z,23.80
2022-08-26T16:33:54.848Z,23.80
2022-08-26T16:36:21.743Z,23.80
2022-08-26T16:38:55.360Z,23.80
2022-08-26T16:41:25.992Z,23.80
2022-08-26T16:43:53.256Z,23.80
2022-08-26T16:46:22.301Z,23.70
2022-08-26T16:48:49.329Z,23.70
2022-08-26T16:51:16.916Z,23.60
2022-08-26T16:53:44.138Z,23.60
2022-08-26T16:56:14.456Z,23.60
2022-08-26T16:58:41.283Z,23.50
2022-08-26T17:01:08.241Z,23.50
2022-08-26T17:03:35.114Z,23.40
2022-08-26T17:06:03.034Z,23.30
2022-08-26T17:08:30.480Z,23.40
2022-08-26T17:11:00.902Z,23.30
2022-08-26T17:13:34.813Z,23.20
2022-08-26T17:16:02.706Z,23.20
2022-08-26T17:18:31.424Z,23.10
2022-08-26T17:21:00.619Z,23.10
2022-08-26T17:23:27.419Z,23.10
2022-08-26T17:25:54.218Z,23.00
2022-08-26T17:28:20.985Z,22.90
2022-08-26T17:30:47.799Z,22.90
2022-08-26T17:33:14.930Z,22.90
2022-08-26T17:35:43.967Z,22.80
2022-08-26T17:38:10.893Z,22.80
2022-08-26T17:40:37.792Z,22.80
2022-08-26T17:43:11.675Z,22.80
2022-08-26T17:45:40.341Z,22.70
2022-08-26T17:48:07.678Z,22.70
2022-08-26T17:50:37.246Z,22.70
2022-08-26T17:53:04.113Z,22.60
2022-08-26T17:55:30.984Z,22.60
2022-08-26T17:57:57.882Z,22.60
2022-08-26T18:00:26.636Z,22.50
2022-08-26T18:02:54.072Z,22.50
2022-08-26T18:05:21.059Z,22.50
2022-08-26T18:07:48.453Z,22.50
2022-08-26T18:10:16.108Z,22.50
2022-08-26T18:12:42.970Z,22.40
2022-08-26T18:15:10.239Z,22.40
2022-08-26T18:17:38.576Z,22.40
2022-08-26T18:20:07.353Z,22.40
2022-08-26T18:22:34.138Z,22.30
2022-08-26T18:25:00.926Z,22.30
2022-08-26T18:27:27.790Z,22.20
2022-08-26T18:29:54.675Z,22.20
2022-08-26T18:32:21.689Z,22.20
2022-08-26T18:34:48.553Z,22.10
2022-08-26T18:37:15.357Z,22.10
2022-08-26T18:39:42.123Z,22.10
2022-08-26T18:42:08.969Z,22.00
2022-08-26T18:44:35.850Z,22.00
2022-08-26T18:47:03.177Z,22.00
2022-08-26T18:49:30.107Z,21.90
2022-08-26T18:51:56.904Z,21.80
2022-08-26T18:54:23.646Z,21.90
2022-08-26T18:56:50.467Z,21.90
2022-08-26T18:59:17.571Z,21.90
2022-08-26T19:01:45.374Z,21.90
2022-08-26T19:04:15.537Z,21.80
2022-08-26T19:06:42.634Z,21.90
2022-08-26T19:09:10.274Z,21.90
2022-08-26T19:11:43.165Z,21.80
2022-08-26T19:14:11.053Z,21.80
2022-08-26T19:16:38.783Z,21.80
2022-08-26T19:19:05.595Z,21.70
2022-08-26T19:21:33.214Z,21.70
2022-08-26T19:24:01.040Z,21.50
2022-08-26T19:26:28.158Z,21.50
2022-08-26T19:28:55.032Z,21.50
2022-08-26T19:31:22.077Z,21.50
2022-08-26T19:33:48.967Z,21.50
2022-08-26T19:36:17.623Z,21.50
2022-08-26T19:38:44.908Z,21.50
2022-08-26T19:41:13.146Z,21.50
2022-08-26T19:43:39.904Z,21.50
2022-08-26T19:46:18.128Z,21.50
2022-08-26T19:48:45.073Z,21.40
2022-08-26T19:51:15.755Z,21.40
2022-08-26T19:53:43.740Z,21.40
2022-08-26T19:56:10.910Z,21.30
2022-08-26T19:58:37.697Z,21.30
2022-08-26T20:01:05.052Z,21.20
2022-08-26T20:03:32.995Z,21.20
2022-08-26T20:06:00.125Z,21.10
2022-08-26T20:08:26.982Z,21.00
2022-08-26T20:10:54.123Z,21.00
2022-08-26T20:13:22.073Z,20.90
2022-08-26T20:15:48.865Z,20.80
2022-08-26T20:18:34.315Z,20.70
2022-08-26T20:21:19.740Z,20.70
2022-08-26T20:23:46.595Z,20.60
2022-08-26T20:26:13.368Z,20.50
2022-08-26T20:28:40.280Z,20.40
2022-08-26T20:31:07.177Z,20.40
2022-08-26T20:33:46.071Z,20.30
2022-08-26T20:36:13.697Z,20.30
2022-08-26T20:38:40.661Z,20.30
2022-08-26T20:41:07.539Z,20.20
2022-08-26T20:43:34.419Z,20.20
2022-08-26T20:46:01.413Z,20.10
2022-08-26T20:48:28.345Z,20.10
2022-08-26T20:50:59.295Z,20.10
2022-08-26T20:53:26.725Z,20.00
2022-08-26T20:55:55.044Z,20.00
2022-08-26T20:58:23.361Z,19.90
2022-08-26T21:00:50.354Z,19.90
2022-08-26T21:03:17.241Z,19.90
2022-08-26T21:05:44.117Z,19.80
2022-08-26T21:08:12.192Z,19.70
2022-08-26T21:10:39.452Z,19.70
2022-08-26T21:13:06.399Z,19.60
2022-08-26T21:15:33.295Z,19.50
2022-08-26T21:18:00.361Z,19.50
2022-08-26T21:20:27.187Z,19.40
2022-08-26T21:22:54.010Z,19.30
2022-08-26T21:25:20.799Z,19.20
2022-08-26T21:27:47.642Z,19.20
2022-08-26T21:30:14.965Z,19.10
2022-08-26T21:32:41.837Z,19.00
2022-08-26T21:35:08.964Z,19.00
2022-08-26T21:37:35.834Z,18.90
2022-08-26T21:40:04.218Z,18.80
2022-08-26T21:42:31.847Z,18.70
2022-08-26T21:44:58.681Z,18.60
2022-08-26T21:47:25.638Z,18.60
2022-08-26T21:49:52.564Z,18.50
2022-08-26T21:52:20.461Z,18.50
2022-08-26T21:54:49.825Z,18.40
2022-08-26T21:57:16.973Z,18.40
2022-08-26T21:59:43.779Z,18.30
2022-08-26T22:02:11.293Z,18.20
2022-08-26T22:04:38.162Z,18.30
2022-08-26T22:07:05.150Z,18.30
2022-08-26T22:09:32.424Z,18.30
2022-08-26T22:11:59.509Z,18.20
2022-08-26T22:14:30.413Z,18.10
2022-08-26T22:16:57.742Z,18.10
2022-08-26T22:19:24.637Z,18.00
2022-08-26T22:21:52.706Z,18.00
2022-08-26T22:24:19.658Z,17.90
2022-08-26T22:26:46.569Z,17.90
2022-08-26T22:29:13.780Z,17.80
2022-08-26T22:31:40.687Z,17.70
2022-08-26T22:34:08.576Z,17.70
2022-08-26T22:36:35.655Z,17.60
2022-08-26T22:39:06.604Z,17.60
2022-08-26T22:41:37.281Z,17.50
2022-08-26T22:44:04.061Z,17.50
2022-08-26T22:46:30.961Z,17.40
2022-08-26T22:48:57.884Z,17.40
2022-08-26T22:51:24.959Z,17.30
2022-08-26T22:53:51.793Z,17.30
2022-08-26T22:56:19.239Z,17.20
2022-08-26T22:58:46.105Z,17.20
2022-08-26T23:01:13.153Z,17.20
2022-08-26T23:03:40.051Z,17.20
2022-08-26T23:06:07.291Z,17.10
2022-08-26T23:08:34.160Z,17.10
2022-08-26T23:11:01.517Z,17.00
2022-08-26T23:13:28.420Z,17.00
2022-08-26T23:16:02.008Z,16.90
2022-08-26T23:18:28.922Z,16.90
2022-08-26T23:20:56.023Z,16.90
2022-08-26T23:23:23.465Z,16.90
2022-08-26T23:25:50.278Z,16.90
2022-08-26T23:28:17.249Z,16.80
2022-08-26T23:30:44.034Z,16.80
2022-08-26T23:33:10.829Z,16.80
2022-08-26T23:35:37.642Z,16.80
2022-08-26T23:38:07.556Z,16.70
2022-08-26T23:40:36.412Z,16.70
2022-08-26T23:43:04.944Z,16.60
2022-08-26T23:45:32.099Z,16.50
2022-08-26T23:47:59.278Z,16.50
2022-08-26T23:50:49.458Z,16.50
2022-08-26T23:53:19.619Z,16.40
2022-08-26T23:55:48.260Z,16.40
2022-08-26T23:58:15.721Z,16.40
